Aérodrome :
LOGIN :

S'inscrire | Disclaimer

   EN    FR    IT 

 










Légende :    VFR   VFR Marginal   IFR   IFR Intensif   IFR Très Intensif
Visi : 
Plafond : 
>= 8 km
>= 3000ft
5 à 8 km
1000 à 3000 ft
1500m à 5 km
500 à 1000 ft
800 à 1500m
200 à 500 ft
< 800m
< 200 ft
Symboles :   Orages  Brouillard  Fortes neiges  Fortes précipitations  Vent > 20 kt
SIGMETs :   Divers  Orages  Givrage  Turbulence  Onde Orograph.  Cendres Volcan.







- Altitude de l'aérodrome : 3368 ft


LSGC - Les Eplatures

DERNIER METAR :
  • 172250Z AUTO 00000KT CAVOK 13/11 Q1022

METARs EXPIRÉS :
  • 172220Z AUTO 00000KT CAVOK 13/11 Q1022
  • 172150Z AUTO 00000KT CAVOK 14/12 Q1022
  • 172120Z AUTO 00000KT CAVOK 14/12 Q1022
  • 172050Z AUTO VRB01KT CAVOK 14/12 Q1022
  • 172020Z AUTO 31002KT CAVOK 15/12 Q1022

TAF TAF LSGC
Valide du 17 à 15h jusqu'au 18 à 00h UTC


171425Z 1715/1724 28005KT 9999 SCT045TCU
PROB30
TEMPO 1715/1717 SHRA
BECMG 1717/1719 CAVOK
Pas de NOTAMs connus pour ce terrain.



MET'MAP, la Météo Aéronautique d'un coup d'oeil ! - Copyright ORBIFLY Décembre 2007 - Disclaimer

ORBIFLY MET'MAP TEAM :

Programmation & Développement : Alexandra Zaïnal
Conception & Développement : Baudouin d'Aumeries
Co-Programmation & Développement : Marc-Olivier Méhu
Soutien technique & logistique : Manuel Goepfert

Contact : metmap@orbifly.com




SOURCES & CREDITS :

   NOAA